This is the latest recevied weather packets stored in our database for station/object KC0CAU. If no packets are shown the sender has not sent any weather packets the latest 10 day(s).
| Time | Temp. | Humidity | Pressure | Rain* | Wind** | Luminosity | Snow |
|---|---|---|---|---|---|---|---|
| 1778227215 | 6.67° C | 48% | 1010.1 hPa | 0 mm | - | - | - |
| 1778226320 | 6.67° C | 50% | 1010.1 hPa | 0 mm | - | - | - |
| 1778225413 | 7.22° C | 49% | 1010 hPa | 0 mm | - | - | - |
| 1778224508 | 7.78° C | 44% | 1010 hPa | 0 mm | - | - | - |
| 1778223606 | 8.33° C | 43% | 1010.3 hPa | 0 mm | - | - | - |
| 1778222704 | 8.33° C | 43% | 1010.5 hPa | 0 mm | - | - | - |
| 1778221804 | 8.33° C | 43% | 1010.2 hPa | 0 mm | - | - | - |
| 1778220960 | 8.89° C | 42% | 1010.4 hPa | 0 mm | - | - | - |
| 1778220060 | 9.44° C | 41% | 1010.4 hPa | 0 mm | - | - | - |
| 1778219156 | 9.44° C | 40% | 1010.6 hPa | 0 mm | - | - | - |
| 1778218276 | 9.44° C | 39% | 1010.7 hPa | 0 mm | - | - | - |
| 1778217354 | 9.44° C | 40% | 1010.6 hPa | 0 mm | - | - | - |
| 1778216451 | 10° C | 40% | 1010.7 hPa | 0 mm | - | - | - |
| 1778215555 | 11.11° C | 36% | 1010.8 hPa | 0 mm | - | - | - |
| 1778214650 | 11.11° C | 34% | 1011 hPa | 0 mm | - | - | - |
| 1778213772 | 11.67° C | 33% | 1011.1 hPa | 0 mm | - | - | - |
| 1778212866 | 11.67° C | 34% | 1011.3 hPa | 0 mm | - | - | - |
| 1778211948 | 11.67° C | 34% | 1011.3 hPa | 0 mm | - | - | - |
| 1778211049 | 11.67° C | 35% | 1011.1 hPa | 0 mm | - | - | - |
| 1778210149 | 11.11° C | 36% | 1011.1 hPa | 0 mm | - | - | - |
| 1778209247 | 11.67° C | 36% | 1011.1 hPa | 0 mm | - | - | - |
| 1778208351 | 12.22° C | 35% | 1010.9 hPa | 0 mm | - | - | - |
| 1778207446 | 12.78° C | 33% | 1010.8 hPa | 0 mm | - | - | - |
| 1778206546 | 12.78° C | 33% | 1010.7 hPa | 0 mm | - | - | - |
| 1778205649 | 13.33° C | 32% | 1010.5 hPa | 0 mm | - | - | - |
* Rain latest hour (hover to see other rain measurements)
** Current wind speed in m/s (hover to see current wind gust speed)